Terminal Aerodrome Forecast
Issued by NWS

Home | Current Version | Previous Version | Text Only | Print | Product List | Glossary Off
Versions: 1 2 3 4 5 6 7 8 9 10 11 12 13 14 15 16 17 18 19 20 21

000
FTUS43 KDLH 221322 AAA
TAFHYR
TAF AMD
KHYR 221322Z 2213/2312 00000KT P6SM SCT005
      TEMPO 2213/2215 5SM BR BKN005
     FM221500 22003KT P6SM VCSH SCT035 OVC090
      TEMPO 2215/2217 5SM -SHRA BKN040
     FM221800 24005KT P6SM BKN050
     FM222300 26006KT P6SM VCSH SCT050 BKN080
      TEMPO 2301/2303 5SM -TSRA BKN040CB
     FM230500 VRB04KT 5SM BR SCT050
     FM230700 00000KT 2SM BR OVC006=

USA.gov is the U.S. government's official web portal to all federal, state and local government web resources and services.